Time;durP1;ratioP1;P1;durP2;ratioP2;P2;SDS_P1;SDS_P2;PMS_P1;PMS_P2;Temp;Humidity;BMP_temperature;BMP_pressure;BME280_temperature;BME280_humidity;BME280_pressure;Samples;Min_cycle;Max_cycle;Signal;HPM_P1;HPM_P2
2021/05/23 00:01:59;;;;;;;2.67;1.00;;;10.40;98.30;;;;;;6271560;28;20472;-77
2021/05/23 00:05:01;;;;;;;0.88;0.88;;;10.30;98.10;;;;;;6269613;28;20529;-77
2021/05/23 00:08:06;;;;;;;2.50;0.98;;;10.30;98.10;;;;;;6246915;28;20059;-78
2021/05/23 00:11:10;;;;;;;1.90;0.70;;;10.30;97.70;;;;;;6247212;28;20102;-77
2021/05/23 00:14:11;;;;;;;1.55;1.00;;;10.40;96.90;;;;;;6247614;28;20045;-77
2021/05/23 00:17:13;;;;;;;1.02;0.70;;;10.50;96.10;;;;;;6246656;28;20049;-77
2021/05/23 00:20:15;;;;;;;0.50;0.50;;;10.60;95.60;;;;;;6246399;28;20092;-77
2021/05/23 00:23:17;;;;;;;2.67;0.80;;;10.70;94.90;;;;;;6247192;28;20626;-77
2021/05/23 00:26:18;;;;;;;0.77;0.75;;;10.80;94.40;;;;;;6246459;28;20140;-77
2021/05/23 00:29:20;;;;;;;0.80;0.70;;;11.00;93.70;;;;;;6246393;28;20129;-77
2021/05/23 00:32:21;;;;;;;1.02;0.75;;;11.20;93.00;;;;;;6246391;28;20065;-77
2021/05/23 00:35:23;;;;;;;2.25;1.02;;;11.30;92.30;;;;;;6246947;28;20483;-77
2021/05/23 00:38:25;;;;;;;2.05;0.90;;;11.40;91.60;;;;;;6246350;28;20136;-77
2021/05/23 00:41:26;;;;;;;1.05;0.80;;;11.60;91.30;;;;;;6246029;28;20069;-76
2021/05/23 00:44:28;;;;;;;3.90;0.98;;;11.70;90.90;;;;;;6246306;28;20060;-76
2021/05/23 00:47:29;;;;;;;0.70;0.70;;;11.70;90.60;;;;;;6246551;28;20045;-76
2021/05/23 00:50:31;;;;;;;1.60;0.80;;;11.70;90.30;;;;;;6245938;28;20049;-76
2021/05/23 00:53:33;;;;;;;0.65;0.57;;;11.70;89.90;;;;;;6246179;28;20587;-76
2021/05/23 00:56:36;;;;;;;2.50;0.98;;;11.70;89.70;;;;;;6246728;28;20065;-76
2021/05/23 00:59:37;;;;;;;1.00;0.65;;;11.70;89.20;;;;;;6251348;28;20059;-77
2021/05/23 01:02:47;;;;;;;0.90;0.82;;;11.70;88.40;;;;;;6252460;28;20045;-76
2021/05/23 01:05:49;;;;;;;1.90;0.95;;;11.80;88.40;;;;;;6250946;28;20073;-76
2021/05/23 01:08:50;;;;;;;1.83;0.95;;;11.80;87.70;;;;;;6250418;28;20514;-76
2021/05/23 01:12:41;;;;;;;1.08;0.70;;;11.90;88.00;;;;;;6250954;28;20049;-76
2021/05/23 01:15:47;;;;;;;0.88;0.77;;;11.90;87.50;;;;;;6250772;28;20091;-76
2021/05/23 01:18:54;;;;;;;1.75;0.70;;;11.90;87.10;;;;;;6250206;28;20133;-76
2021/05/23 01:22:05;;;;;;;1.58;1.45;;;12.00;87.50;;;;;;6250371;28;20045;-75
2021/05/23 01:25:10;;;;;;;4.32;0.80;;;12.00;87.10;;;;;;6250318;28;20184;-76
2021/05/23 01:28:13;;;;;;;1.52;0.90;;;12.00;86.80;;;;;;6250548;28;20057;-76
2021/05/23 01:31:16;;;;;;;1.75;0.60;;;12.00;86.30;;;;;;6250469;28;20084;-76
2021/05/23 01:34:21;;;;;;;1.58;1.40;;;12.10;86.60;;;;;;6251871;28;20475;-75
2021/05/23 01:37:25;;;;;;;3.65;0.88;;;12.10;86.30;;;;;;6250256;28;20049;-76
2021/05/23 01:40:29;;;;;;;5.07;1.17;;;12.00;86.10;;;;;;6249733;28;20049;-76
2021/05/23 01:43:31;;;;;;;1.45;0.68;;;12.10;86.60;;;;;;6250266;28;20419;-76
2021/05/23 01:46:32;;;;;;;1.48;0.80;;;12.00;86.40;;;;;;6249680;28;20435;-75
2021/05/23 01:49:37;;;;;;;0.85;0.77;;;12.00;86.50;;;;;;6249611;28;20176;-76
2021/05/23 01:52:47;;;;;;;1.00;0.70;;;12.00;86.50;;;;;;6249713;28;20052;-75
2021/05/23 01:55:49;;;;;;;5.18;0.90;;;12.00;87.00;;;;;;6250296;28;20187;-75
2021/05/23 01:58:50;;;;;;;1.55;0.90;;;11.90;87.40;;;;;;6249314;28;20072;-76
2021/05/23 02:01:52;;;;;;;1.42;0.70;;;11.90;87.20;;;;;;6249301;28;20128;-76
2021/05/23 02:04:53;;;;;;;4.05;1.63;;;11.90;87.40;;;;;;6249348;28;20477;-76
2021/05/23 02:07:54;;;;;;;2.83;0.85;;;11.90;87.90;;;;;;6249103;28;20060;-75
2021/05/23 02:10:58;;;;;;;3.72;1.05;;;11.80;88.70;;;;;;6249303;28;20128;-76
2021/05/23 02:14:00;;;;;;;1.67;0.90;;;11.80;88.00;;;;;;6249291;28;20046;-76
2021/05/23 02:17:01;;;;;;;2.75;1.25;;;11.80;87.80;;;;;;6249315;28;20479;-75
2021/05/23 02:20:05;;;;;;;3.13;1.17;;;11.80;87.20;;;;;;6248820;28;20128;-76
2021/05/23 02:23:11;;;;;;;4.28;2.03;;;11.80;86.90;;;;;;6249132;28;20142;-77
2021/05/23 02:26:13;;;;;;;2.85;1.02;;;11.80;86.50;;;;;;6248955;28;20136;-76
2021/05/23 02:29:15;;;;;;;1.85;0.80;;;11.80;85.90;;;;;;6248689;28;20118;-75
2021/05/23 02:32:16;;;;;;;4.35;1.35;;;11.80;85.60;;;;;;6248919;28;20041;-75
2021/05/23 02:35:20;;;;;;;2.33;1.30;;;11.80;85.00;;;;;;6249411;28;20128;-75
2021/05/23 02:38:21;;;;;;;1.60;0.90;;;11.80;85.20;;;;;;6248454;28;20045;-76
2021/05/23 02:41:24;;;;;;;0.98;0.80;;;11.80;86.30;;;;;;6248314;28;20122;-77
2021/05/23 02:44:25;;;;;;;4.43;1.08;;;11.70;88.70;;;;;;6248410;28;20047;-77
2021/05/23 02:47:26;;;;;;;3.22;1.65;;;11.70;90.20;;;;;;6249052;28;20251;-76
2021/05/23 02:50:29;;;;;;;1.70;1.30;;;11.60;91.20;;;;;;6247892;28;20042;-76
2021/05/23 02:53:31;;;;;;;1.58;0.70;;;11.50;91.70;;;;;;6248335;28;20053;-76
2021/05/23 02:56:33;;;;;;;1.45;0.70;;;11.40;92.40;;;;;;6248132;28;20474;-75
2021/05/23 02:59:34;;;;;;;1.98;0.90;;;11.40;93.10;;;;;;6248569;28;20053;-75
2021/05/23 03:02:36;;;;;;;2.92;1.58;;;11.30;93.50;;;;;;6247773;28;20526;-76
2021/05/23 03:05:38;;;;;;;1.17;0.80;;;11.20;94.10;;;;;;6248088;28;20045;-76
2021/05/23 03:08:39;;;;;;;7.80;1.55;;;11.20;94.50;;;;;;6247784;28;20046;-77
2021/05/23 03:11:43;;;;;;;1.05;0.90;;;11.20;94.80;;;;;;6248243;28;20140;-75
2021/05/23 03:14:44;;;;;;;1.60;1.05;;;11.10;95.30;;;;;;6247670;28;20048;-76
2021/05/23 03:17:46;;;;;;;1.20;1.10;;;11.10;95.60;;;;;;6247561;28;20124;-76
2021/05/23 03:20:47;;;;;;;0.90;0.90;;;11.00;96.30;;;;;;6246655;28;20069;-75
2021/05/23 03:23:48;;;;;;;0.50;0.50;;;10.80;96.70;;;;;;6248377;28;20050;-76
2021/05/23 03:26:51;;;;;;;1.70;0.90;;;10.70;97.00;;;;;;6247419;28;20479;-76
2021/05/23 03:29:52;;;;;;;2.65;1.10;;;10.60;97.60;;;;;;6246938;28;20581;-75
2021/05/23 03:32:53;;;;;;;0.93;0.90;;;10.60;98.10;;;;;;6247117;28;20543;-76
2021/05/23 03:35:55;;;;;;;1.42;1.00;;;10.50;98.40;;;;;;6247804;28;20137;-78
2021/05/23 03:38:56;;;;;;;1.05;0.95;;;10.50;98.70;;;;;;6246969;28;20550;-76
2021/05/23 03:41:58;;;;;;;1.13;0.88;;;10.50;98.90;;;;;;6246897;28;20067;-76
2021/05/23 03:45:00;;;;;;;1.30;0.90;;;10.60;98.90;;;;;;6246952;28;20563;-76
2021/05/23 03:48:01;;;;;;;2.03;0.90;;;10.60;99.00;;;;;;6246984;28;20438;-76
2021/05/23 03:51:02;;;;;;;2.25;0.98;;;10.50;98.70;;;;;;6247060;28;20052;-76
2021/05/23 03:54:06;;;;;;;1.13;0.90;;;10.50;98.90;;;;;;6246891;28;20128;-77
2021/05/23 03:57:09;;;;;;;2.15;0.70;;;10.50;99.20;;;;;;6247045;28;20046;-76
2021/05/23 04:00:12;;;;;;;1.10;0.88;;;10.60;99.00;;;;;;6246639;28;20132;-75
2021/05/23 04:03:13;;;;;;;2.15;0.85;;;10.70;98.60;;;;;;6246944;28;20516;-75
2021/05/23 04:06:15;;;;;;;1.30;1.20;;;10.70;98.20;;;;;;6246631;28;20128;-76
2021/05/23 04:09:18;;;;;;;1.77;0.90;;;10.80;97.60;;;;;;6246469;28;20132;-76
2021/05/23 04:12:23;;;;;;;1.67;0.77;;;10.90;96.70;;;;;;6277778;23;20379;-77
2021/05/23 04:15:25;;;;;;;1.15;0.68;;;10.90;96.30;;;;;;6273487;28;20049;-77
2021/05/23 04:18:26;;;;;;;1.85;1.00;;;11.00;96.10;;;;;;6271874;28;20049;-77
2021/05/23 04:21:27;;;;;;;3.03;0.70;;;11.10;95.70;;;;;;6271595;28;20074;-77
2021/05/23 04:24:29;;;;;;;1.42;0.85;;;11.10;95.00;;;;;;6271881;28;20071;-77
2021/05/23 04:27:31;;;;;;;1.42;1.15;;;11.10;94.60;;;;;;6272454;28;20596;-78
2021/05/23 04:30:33;;;;;;;1.83;0.90;;;11.20;94.40;;;;;;6271843;28;20041;-77
2021/05/23 04:33:34;;;;;;;1.75;1.65;;;11.30;94.00;;;;;;6277639;28;20108;-77
2021/05/23 04:36:35;;;;;;;4.10;1.25;;;11.30;93.30;;;;;;6277438;28;20517;-78
2021/05/23 04:39:37;;;;;;;2.50;0.98;;;11.30;93.00;;;;;;6277331;28;20049;-78
2021/05/23 04:42:39;;;;;;;1.15;0.50;;;11.40;92.60;;;;;;6277259;28;20072;-78
2021/05/23 04:45:41;;;;;;;2.15;0.77;;;11.40;92.10;;;;;;6278279;28;20122;-78
2021/05/23 04:48:42;;;;;;;2.15;0.80;;;11.50;92.00;;;;;;6278662;28;20049;-78
2021/05/23 04:51:44;;;;;;;0.70;0.63;;;11.50;91.70;;;;;;6279411;28;20076;-77
2021/05/23 04:54:45;;;;;;;8.60;0.90;;;11.60;91.50;;;;;;6277874;28;20074;-78
2021/05/23 04:57:48;;;;;;;0.98;0.85;;;11.70;90.70;;;;;;6277191;28;20474;-77
2021/05/23 05:00:49;;;;;;;1.30;0.80;;;11.70;90.40;;;;;;6275575;28;20049;-77
2021/05/23 05:03:50;;;;;;;0.95;0.80;;;11.80;89.50;;;;;;6276749;28;20144;-77
2021/05/23 05:06:52;;;;;;;1.95;1.10;;;11.90;88.50;;;;;;6276390;28;20765;-77
2021/05/23 05:09:53;;;;;;;1.77;0.90;;;12.10;87.40;;;;;;6275696;28;20068;-77
2021/05/23 05:12:55;;;;;;;2.85;0.90;;;12.30;86.30;;;;;;6275707;28;20048;-77
2021/05/23 05:15:57;;;;;;;1.05;0.95;;;12.50;84.60;;;;;;6275498;28;20099;-77
2021/05/23 05:18:58;;;;;;;4.65;1.20;;;12.70;83.20;;;;;;6276195;28;20049;-77
2021/05/23 05:22:00;;;;;;;4.30;1.83;;;13.00;81.30;;;;;;6276292;28;20136;-78
2021/05/23 05:25:01;;;;;;;3.42;0.82;;;13.10;80.30;;;;;;6275621;28;20486;-77
2021/05/23 05:28:04;;;;;;;2.40;0.80;;;13.00;80.30;;;;;;6275961;28;20466;-77
2021/05/23 05:31:05;;;;;;;3.10;0.70;;;12.90;80.60;;;;;;6276160;28;20103;-77
2021/05/23 05:34:06;;;;;;;4.15;0.95;;;12.90;81.30;;;;;;6275819;28;20072;-77
2021/05/23 05:37:08;;;;;;;5.47;4.63;;;12.90;81.20;;;;;;6275458;28;20132;-78
2021/05/23 05:40:10;;;;;;;4.00;3.55;;;12.90;82.10;;;;;;6275983;28;20183;-77
2021/05/23 05:43:13;;;;;;;3.67;1.65;;;12.80;82.00;;;;;;6276469;28;20049;-77
2021/05/23 05:46:14;;;;;;;4.00;1.05;;;12.70;82.60;;;;;;6277107;28;20541;-77
2021/05/23 05:49:16;;;;;;;2.15;1.08;;;12.70;81.90;;;;;;6286390;28;20052;-77
2021/05/23 05:52:17;;;;;;;1.83;1.48;;;12.70;81.90;;;;;;6284482;28;20052;-77
2021/05/23 05:55:18;;;;;;;2.10;1.02;;;12.70;81.60;;;;;;6275874;28;20053;-77
2021/05/23 05:58:21;;;;;;;3.72;3.10;;;12.70;80.50;;;;;;6275927;28;20049;-78
2021/05/23 06:01:22;;;;;;;4.93;4.43;;;12.90;80.70;;;;;;6275922;28;20068;-78
2021/05/23 06:04:23;;;;;;;1.67;0.93;;;13.10;80.00;;;;;;6266441;28;23054;-77
2021/05/23 06:07:24;;;;;;;4.07;1.30;;;13.20;79.70;;;;;;6264816;28;20056;-77
2021/05/23 06:10:26;;;;;;;1.90;1.02;;;13.30;79.30;;;;;;6257568;28;20125;-77
2021/05/23 06:13:28;;;;;;;3.53;1.30;;;13.60;77.90;;;;;;6256137;28;20515;-76
2021/05/23 06:16:29;;;;;;;3.08;0.88;;;13.90;76.50;;;;;;6274277;28;20120;-77
2021/05/23 06:19:31;;;;;;;2.78;2.40;;;14.70;74.10;;;;;;6274632;28;20494;-77
2021/05/23 06:22:32;;;;;;;4.60;1.20;;;14.90;72.50;;;;;;6263280;28;20045;-77
2021/05/23 06:25:33;;;;;;;1.23;0.93;;;15.20;72.40;;;;;;6249477;28;20530;-77
2021/05/23 06:28:36;;;;;;;2.85;1.00;;;15.50;70.90;;;;;;6249208;28;20065;-76
2021/05/23 06:31:38;;;;;;;3.33;1.00;;;15.30;68.50;;;;;;6249612;28;20133;-77
2021/05/23 06:34:39;;;;;;;5.80;1.02;;;15.10;67.60;;;;;;6249010;28;20049;-77
2021/05/23 06:37:40;;;;;;;1.02;0.80;;;14.70;68.30;;;;;;6249036;28;20128;-77
2021/05/23 06:40:42;;;;;;;2.58;1.95;;;14.40;69.10;;;;;;6269108;28;20045;-76
2021/05/23 06:43:44;;;;;;;2.22;0.90;;;14.30;69.30;;;;;;6274065;28;20077;-77
2021/05/23 06:46:45;;;;;;;3.08;0.75;;;14.40;69.30;;;;;;6273708;28;20122;-77
2021/05/23 06:49:46;;;;;;;4.65;0.80;;;14.80;68.40;;;;;;6273075;28;20577;-77
2021/05/23 06:52:48;;;;;;;1.27;1.00;;;15.00;67.10;;;;;;6273908;28;20076;-77
2021/05/23 06:55:49;;;;;;;2.10;1.00;;;15.00;67.00;;;;;;6273726;28;20080;-77
2021/05/23 06:58:51;;;;;;;3.63;1.33;;;15.20;65.80;;;;;;6272962;28;20083;-77
2021/05/23 07:01:53;;;;;;;6.03;1.10;;;15.30;65.80;;;;;;6273703;28;20123;-77
2021/05/23 07:04:54;;;;;;;3.83;1.45;;;15.40;65.50;;;;;;6272796;28;20048;-77
2021/05/23 07:07:55;;;;;;;4.43;2.35;;;15.40;65.70;;;;;;6273576;28;20620;-77
2021/05/23 07:10:57;;;;;;;1.65;0.70;;;15.80;64.40;;;;;;6273161;28;20132;-77
2021/05/23 07:13:59;;;;;;;2.95;0.90;;;16.10;64.10;;;;;;6259865;28;20511;-77
2021/05/23 07:17:00;;;;;;;2.38;0.80;;;16.60;62.50;;;;;;6248329;28;20103;-77
2021/05/23 07:20:02;;;;;;;3.15;0.80;;;16.60;61.10;;;;;;6248180;28;20056;-76
2021/05/23 07:23:04;;;;;;;2.65;1.42;;;16.10;61.80;;;;;;6248378;28;20094;-77
2021/05/23 07:26:05;;;;;;;2.13;1.50;;;15.50;63.90;;;;;;6249557;28;20520;-77
2021/05/23 07:29:07;;;;;;;3.22;1.48;;;15.30;65.70;;;;;;6247724;28;20100;-77
2021/05/23 07:32:09;;;;;;;1.45;0.95;;;15.40;67.30;;;;;;6250278;28;20134;-77
2021/05/23 07:35:11;;;;;;;0.80;0.77;;;15.10;68.90;;;;;;6251934;28;20111;-76
2021/05/23 07:38:12;;;;;;;2.67;0.85;;;14.80;69.20;;;;;;6250646;28;20046;-77
2021/05/23 07:41:14;;;;;;;1.50;0.90;;;14.80;70.30;;;;;;6249113;28;20168;-77
2021/05/23 07:44:17;;;;;;;1.25;0.60;;;15.50;68.10;;;;;;6252367;28;20054;-77
2021/05/23 07:47:18;;;;;;;2.42;1.02;;;15.60;67.70;;;;;;6251139;28;20145;-79
2021/05/23 07:50:20;;;;;;;1.50;0.70;;;15.90;67.60;;;;;;6255746;28;20521;-76
2021/05/23 07:53:21;;;;;;;4.60;1.27;;;16.80;64.50;;;;;;6252989;28;20140;-76
2021/05/23 07:56:23;;;;;;;2.38;1.27;;;17.00;63.20;;;;;;6252704;28;20065;-76
2021/05/23 07:59:25;;;;;;;2.17;1.05;;;17.20;62.70;;;;;;6247324;28;20437;-75
2021/05/23 08:02:27;;;;;;;9.32;3.45;;;17.20;62.60;;;;;;6247041;28;20075;-76
2021/05/23 08:05:29;;;;;;;1.67;1.20;;;16.90;63.70;;;;;;6246518;28;20056;-76
2021/05/23 08:08:31;;;;;;;4.03;1.55;;;16.70;64.60;;;;;;6246707;28;20098;-76
2021/05/23 08:11:32;;;;;;;2.85;1.65;;;16.40;65.20;;;;;;6247332;28;20077;-75
2021/05/23 08:14:34;;;;;;;1.73;1.17;;;16.20;66.50;;;;;;6265346;28;20065;-75
2021/05/23 08:17:37;;;;;;;2.85;1.10;;;16.50;65.30;;;;;;6271995;28;20066;-76
2021/05/23 08:20:38;;;;;;;2.78;0.85;;;17.20;63.60;;;;;;6271352;28;20044;-76
2021/05/23 08:23:39;;;;;;;4.57;1.13;;;17.40;62.80;;;;;;6272044;28;20183;-76
2021/05/23 08:26:41;;;;;;;2.70;1.23;;;17.50;62.70;;;;;;6271740;28;20490;-76
2021/05/23 08:29:43;;;;;;;0.80;0.70;;;17.90;62.30;;;;;;6271018;28;20080;-75
2021/05/23 08:32:44;;;;;;;4.05;0.82;;;18.40;60.60;;;;;;6268895;28;20665;-75
2021/05/23 08:35:46;;;;;;;3.47;1.20;;;19.10;57.80;;;;;;6270944;28;20139;-74
2021/05/23 08:38:48;;;;;;;1.65;0.68;;;18.80;57.70;;;;;;6270581;28;20135;-75
2021/05/23 08:41:51;;;;;;;1.85;0.60;;;18.20;59.50;;;;;;6271296;28;20108;-76
2021/05/23 08:44:54;;;;;;;4.05;0.85;;;17.60;61.50;;;;;;6271050;28;20044;-75
2021/05/23 08:47:56;;;;;;;1.25;0.52;;;17.00;62.50;;;;;;6271102;28;20053;-74
2021/05/23 08:50:57;;;;;;;3.45;1.27;;;17.20;62.60;;;;;;6272452;28;20523;-75
2021/05/23 08:54:02;;;;;;;0.90;0.55;;;18.40;58.80;;;;;;6271338;28;20395;-75
2021/05/23 08:57:03;;;;;;;1.60;0.80;;;19.60;56.20;;;;;;6271475;28;20419;-75
2021/05/23 09:00:08;;;;;;;3.47;0.70;;;20.10;53.80;;;;;;6270910;28;20492;-77
2021/05/23 09:03:12;;;;;;;1.63;0.80;;;19.90;53.40;;;;;;6271791;28;20052;-77
2021/05/23 09:06:26;;;;;;;1.55;0.77;;;19.20;55.40;;;;;;6271051;28;20060;-76
2021/05/23 09:09:27;;;;;;;1.70;0.60;;;18.40;58.20;;;;;;6270752;28;20136;-76
2021/05/23 09:12:29;;;;;;;0.52;0.50;;;18.40;58.90;;;;;;6271279;28;20082;-77
2021/05/23 09:15:31;;;;;;;2.08;1.02;;;19.80;55.10;;;;;;6271725;28;20059;-77
2021/05/23 09:18:43;;;;;;;1.50;0.85;;;20.50;52.90;;;;;;6272773;28;20068;-75
2021/05/23 09:21:45;;;;;;;3.55;0.73;;;19.90;53.10;;;;;;6275343;28;20456;-76
2021/05/23 09:24:51;;;;;;;3.17;0.90;;;18.90;56.40;;;;;;6276415;28;20127;-76
2021/05/23 09:27:53;;;;;;;2.45;0.57;;;17.80;58.90;;;;;;6276008;28;20555;-76
2021/05/23 09:30:55;;;;;;;3.75;1.10;;;17.10;61.70;;;;;;6277155;28;20094;-76
2021/05/23 09:33:57;;;;;;;1.27;0.90;;;16.70;63.80;;;;;;6271843;28;20049;-76
2021/05/23 09:37:00;;;;;;;0.68;0.63;;;16.60;63.60;;;;;;6255583;28;20055;-75
2021/05/23 09:40:03;;;;;;;3.28;0.88;;;16.50;63.20;;;;;;6262838;28;20104;-76
2021/05/23 09:43:08;;;;;;;1.50;0.90;;;16.20;63.40;;;;;;6265086;28;20119;-75
2021/05/23 09:46:10;;;;;;;2.88;0.65;;;16.00;65.30;;;;;;6261878;28;20112;-76
2021/05/23 09:49:15;;;;;;;0.82;0.68;;;16.30;65.40;;;;;;6264877;28;20524;-76
2021/05/23 09:52:18;;;;;;;2.08;0.57;;;16.90;62.50;;;;;;6265867;28;20045;-76
2021/05/23 09:55:19;;;;;;;2.17;1.08;;;17.10;61.90;;;;;;6265668;28;20451;-76
2021/05/23 09:58:22;;;;;;;1.70;0.60;;;17.00;61.20;;;;;;6267775;28;20053;-76
2021/05/23 10:01:27;;;;;;;2.63;1.05;;;17.00;61.30;;;;;;6269771;28;20045;-76
2021/05/23 10:04:28;;;;;;;3.33;1.20;;;17.00;62.00;;;;;;6265517;28;20058;-76
2021/05/23 10:07:32;;;;;;;2.92;0.98;;;16.80;61.40;;;;;;6271951;28;20587;-75
2021/05/23 10:10:34;;;;;;;1.75;0.75;;;16.50;62.30;;;;;;6274395;28;20049;-75
2021/05/23 10:13:35;;;;;;;4.80;0.85;;;16.30;62.90;;;;;;6264600;28;20128;-77
2021/05/23 10:16:37;;;;;;;3.78;1.70;;;16.10;62.50;;;;;;6250407;28;20144;-76
2021/05/23 10:19:40;;;;;;;2.05;0.77;;;16.10;61.90;;;;;;6250088;28;20055;-76
2021/05/23 10:22:41;;;;;;;36.38;26.77;;;16.10;62.30;;;;;;6249699;28;20046;-76
2021/05/23 10:25:48;;;;;;;2.97;1.52;;;16.40;61.00;;;;;;6268897;28;20045;-78
2021/05/23 10:28:51;;;;;;;3.45;1.13;;;16.90;59.10;;;;;;6276753;28;20087;-74
2021/05/23 10:32:06;;;;;;;2.72;1.00;;;17.50;58.40;;;;;;6274895;28;20457;-75
2021/05/23 10:35:17;;;;;;;3.45;1.25;;;17.90;56.50;;;;;;6267058;28;20055;-77
2021/05/23 10:38:22;;;;;;;1.73;1.30;;;18.20;56.40;;;;;;6272926;28;20152;-77
2021/05/23 10:41:24;;;;;;;3.92;1.58;;;18.40;55.40;;;;;;6273226;28;20048;-78
2021/05/23 10:44:25;;;;;;;4.53;2.80;;;18.50;54.20;;;;;;6273440;28;20392;-77
2021/05/23 10:47:30;;;;;;;3.85;0.77;;;18.30;55.90;;;;;;6273887;28;20049;-77
2021/05/23 10:50:35;;;;;;;3.28;2.10;;;18.00;57.90;;;;;;6274518;28;20060;-77
2021/05/23 10:53:36;;;;;;;2.45;1.05;;;17.50;63.70;;;;;;6273283;28;20124;-77
2021/05/23 10:56:38;;;;;;;4.57;1.05;;;16.90;67.20;;;;;;6273422;28;20166;-77
2021/05/23 10:59:40;;;;;;;2.38;0.80;;;16.60;68.70;;;;;;6273380;28;20055;-77
2021/05/23 11:02:43;;;;;;;4.07;1.20;;;16.90;70.60;;;;;;6273118;28;20059;-77
2021/05/23 11:05:45;;;;;;;2.92;1.63;;;17.10;71.00;;;;;;6272882;28;20132;-76
2021/05/23 11:08:48;;;;;;;1.90;0.90;;;17.10;66.30;;;;;;6273533;28;20128;-77
2021/05/23 11:11:50;;;;;;;3.10;1.00;;;17.20;65.20;;;;;;6273174;28;20056;-77
2021/05/23 11:14:56;;;;;;;3.15;0.93;;;17.50;64.70;;;;;;6252251;28;20057;-77
2021/05/23 11:17:58;;;;;;;0.90;0.73;;;17.60;63.10;;;;;;6247871;28;20123;-77
2021/05/23 11:21:01;;;;;;;1.73;1.05;;;17.80;64.20;;;;;;6247667;28;20120;-76
2021/05/23 11:24:04;;;;;;;3.70;0.88;;;18.00;61.10;;;;;;6247754;28;20503;-77
2021/05/23 11:27:13;;;;;;;6.53;1.15;;;18.60;58.40;;;;;;6248928;28;20072;-77
2021/05/23 11:30:15;;;;;;;2.92;0.80;;;18.90;54.10;;;;;;6247612;28;20049;-77
2021/05/23 11:33:17;;;;;;;2.53;0.80;;;19.10;54.10;;;;;;6247837;28;20167;-77
2021/05/23 11:36:19;;;;;;;1.92;0.80;;;19.10;50.30;;;;;;6260018;28;20128;-77
2021/05/23 11:39:21;;;;;;;2.15;0.73;;;19.30;51.50;;;;;;6272222;28;20139;-76
2021/05/23 11:42:22;;;;;;;5.32;1.80;;;19.50;48.70;;;;;;6271150;28;20457;-77
2021/05/23 11:45:25;;;;;;;1.10;0.40;;;19.60;46.90;;;;;;6271401;28;20128;-76
2021/05/23 11:48:35;;;;;;;1.80;0.80;;;;;;;;;;6271903;28;20566;-76
2021/05/23 11:51:36;;;;;;;1.02;0.77;;;19.40;45.50;;;;;;6271925;28;20060;-76
2021/05/23 11:54:38;;;;;;;1.80;1.20;;;19.20;47.00;;;;;;6271658;28;20068;-76
2021/05/23 11:57:39;;;;;;;1.80;1.13;;;19.00;47.20;;;;;;6271906;28;20052;-77
2021/05/23 12:00:40;;;;;;;2.20;0.75;;;18.90;47.30;;;;;;6272470;28;20045;-77
2021/05/23 12:03:43;;;;;;;0.32;0.32;;;18.80;47.40;;;;;;6272245;28;20049;-77
2021/05/23 12:06:48;;;;;;;2.80;0.68;;;18.70;47.60;;;;;;6271519;28;20073;-77
2021/05/23 12:09:50;;;;;;;1.33;0.50;;;18.50;47.40;;;;;;6271836;28;20045;-77
2021/05/23 12:12:52;;;;;;;2.85;0.80;;;18.00;48.50;;;;;;6271522;28;20135;-77
2021/05/23 12:15:57;;;;;;;1.88;0.90;;;17.80;50.00;;;;;;6272219;28;20103;-76
2021/05/23 12:18:59;;;;;;;2.05;0.52;;;17.40;51.10;;;;;;6271995;28;20049;-77
2021/05/23 12:22:00;;;;;;;2.42;0.90;;;17.10;52.40;;;;;;6271794;28;20069;-77
2021/05/23 12:25:10;;;;;;;2.08;0.77;;;16.90;53.30;;;;;;6274204;28;20124;-76
2021/05/23 12:28:11;;;;;;;1.55;0.70;;;16.90;53.90;;;;;;6272361;28;20481;-76
2021/05/23 12:31:14;;;;;;;0.95;0.75;;;17.10;53.90;;;;;;6271923;28;20141;-76
2021/05/23 12:34:16;;;;;;;3.65;0.90;;;17.10;53.30;;;;;;6271622;28;20052;-76
2021/05/23 12:37:22;;;;;;;2.63;1.30;;;17.10;53.30;;;;;;6268049;28;20131;-76
2021/05/23 12:40:26;;;;;;;2.20;0.80;;;17.20;53.80;;;;;;6268937;28;20045;-76
2021/05/23 12:43:31;;;;;;;1.33;0.73;;;17.40;53.80;;;;;;6272113;28;20052;-76
2021/05/23 12:46:32;;;;;;;3.03;0.43;;;17.70;53.20;;;;;;6272033;28;20056;-75
2021/05/23 12:49:36;;;;;;;0.88;0.80;;;18.10;52.20;;;;;;6271608;28;20045;-76
2021/05/23 12:52:37;;;;;;;1.13;0.60;;;18.50;51.40;;;;;;6274521;28;20171;-75
2021/05/23 12:55:40;;;;;;;1.35;0.55;;;18.90;51.00;;;;;;6275680;28;20537;-76
2021/05/23 12:58:46;;;;;;;2.55;0.52;;;19.10;50.10;;;;;;6276061;28;20080;-76
2021/05/23 13:01:49;;;;;;;1.15;0.40;;;19.30;49.60;;;;;;6276236;28;20071;-76
2021/05/23 13:05:00;;;;;;;1.55;0.50;;;19.60;49.30;;;;;;6276168;28;20558;-76
2021/05/23 13:08:12;;;;;;;1.13;0.50;;;19.90;47.50;;;;;;6276220;28;20139;-77
2021/05/23 13:11:18;;;;;;;1.75;0.80;;;19.80;47.50;;;;;;6276881;28;20069;-77
2021/05/23 13:14:21;;;;;;;5.15;0.80;;;19.90;46.60;;;;;;6278684;28;20077;-76
2021/05/23 13:17:26;;;;;;;4.72;0.40;;;20.10;46.70;;;;;;6306585;28;20105;-77
2021/05/23 13:20:31;;;;;;;1.88;0.80;;;20.20;45.30;;;;;;6307052;28;20029;-77
2021/05/23 13:23:32;;;;;;;3.03;0.77;;;20.00;45.40;;;;;;6308313;28;20029;-76
2021/05/23 13:26:44;;;;;;;2.92;2.03;;;19.90;45.10;;;;;;6307920;28;20055;-77
2021/05/23 13:29:46;;;;;;;1.40;0.60;;;19.80;44.60;;;;;;6307570;28;20028;-77
2021/05/23 13:32:48;;;;;;;0.47;0.35;;;19.80;45.00;;;;;;6307163;28;20033;-77
2021/05/23 13:35:50;;;;;;;1.35;0.40;;;19.90;43.20;;;;;;6307477;28;20045;-77
2021/05/23 13:38:52;;;;;;;1.60;0.60;;;20.20;41.90;;;;;;6302157;28;20033;-77
2021/05/23 13:41:53;;;;;;;0.80;0.20;;;20.20;41.30;;;;;;6301397;28;20072;-76
2021/05/23 13:44:54;;;;;;;0.70;0.30;;;20.10;41.60;;;;;;6275945;28;20052;-76
2021/05/23 13:47:55;;;;;;;0.88;0.52;;;20.30;41.70;;;;;;6275976;28;20091;-76
2021/05/23 13:50:58;;;;;;;2.15;0.80;;;20.30;42.60;;;;;;6275352;28;20053;-76
2021/05/23 13:53:59;;;;;;;2.25;0.50;;;20.30;42.70;;;;;;6275735;28;20137;-77
2021/05/23 13:57:01;;;;;;;2.03;0.43;;;20.40;41.80;;;;;;6274660;28;20140;-77
2021/05/23 14:00:03;;;;;;;2.50;1.05;;;20.60;42.70;;;;;;6274494;28;20503;-76
2021/05/23 14:03:17;;;;;;;3.30;0.40;;;20.60;43.40;;;;;;6274862;28;20064;-76
2021/05/23 14:06:19;;;;;;;1.05;0.30;;;20.40;44.10;;;;;;6274610;28;20049;-77
2021/05/23 14:09:21;;;;;;;0.50;0.35;;;20.10;44.90;;;;;;6273516;28;20464;-78
2021/05/23 14:12:23;;;;;;;0.80;0.80;;;20.20;44.40;;;;;;6274382;28;20045;-76
2021/05/23 14:15:25;;;;;;;1.83;1.02;;;20.00;45.60;;;;;;6256545;28;20046;-77
2021/05/23 14:18:26;;;;;;;0.52;0.30;;;19.90;45.70;;;;;;6256492;28;20109;-77
2021/05/23 14:21:28;;;;;;;0.55;0.38;;;19.80;44.50;;;;;;6253862;28;20052;-77
2021/05/23 14:24:30;;;;;;;0.43;0.30;;;19.70;44.80;;;;;;6259286;28;20123;-76
2021/05/23 14:27:31;;;;;;;36.83;19.60;;;19.70;44.20;;;;;;6268389;28;20071;-76
2021/05/23 14:30:33;;;;;;;0.85;0.30;;;19.50;43.50;;;;;;6273766;28;20510;-76
2021/05/23 14:33:35;;;;;;;1.08;0.43;;;19.40;44.50;;;;;;6273775;28;20051;-76
2021/05/23 14:36:37;;;;;;;0.68;0.40;;;19.30;44.90;;;;;;6273732;28;20037;-76
2021/05/23 14:39:39;;;;;;;5.13;2.13;;;19.30;44.90;;;;;;6272619;28;20555;-76
2021/05/23 14:42:40;;;;;;;39.70;23.77;;;19.40;45.70;;;;;;6273269;28;20041;-76
2021/05/23 14:45:42;;;;;;;2.05;1.63;;;19.40;45.40;;;;;;6273602;28;20194;-77
2021/05/23 14:48:43;;;;;;;3.22;0.93;;;19.60;44.40;;;;;;6273525;28;20102;-76
2021/05/23 14:51:45;;;;;;;1.58;0.50;;;19.60;44.50;;;;;;6274087;28;20052;-76
2021/05/23 14:54:47;;;;;;;0.80;0.50;;;19.70;45.10;;;;;;6273502;28;20068;-74
2021/05/23 14:57:48;;;;;;;1.00;0.50;;;20.00;45.20;;;;;;6273245;28;20128;-76
2021/05/23 15:00:54;;;;;;;0.50;0.50;;;20.30;42.70;;;;;;6272426;28;20132;-76
2021/05/23 15:03:55;;;;;;;1.58;0.30;;;20.50;42.40;;;;;;6273554;28;20387;-75
2021/05/23 15:06:58;;;;;;;1.77;0.50;;;20.80;41.90;;;;;;6273237;28;20422;-76
2021/05/23 15:09:59;;;;;;;1.33;0.47;;;21.00;42.20;;;;;;6272252;28;20471;-75
2021/05/23 15:13:00;;;;;;;4.15;0.38;;;21.00;41.90;;;;;;6272919;28;20072;-75
2021/05/23 15:16:02;;;;;;;3.47;0.40;;;20.80;42.00;;;;;;6271809;28;20143;-76
2021/05/23 15:19:04;;;;;;;1.73;0.40;;;20.40;43.10;;;;;;6272844;28;20045;-76
2021/05/23 15:22:06;;;;;;;0.68;0.50;;;20.20;43.80;;;;;;6272433;28;20124;-75
2021/05/23 15:25:08;;;;;;;1.75;0.60;;;19.90;44.60;;;;;;6272579;28;20481;-75
2021/05/23 15:31:30;;;;;;;1.02;0.80;;;19.20;47.40;;;;;;6273387;28;20120;-75
2021/05/23 15:34:32;;;;;;;1.70;0.80;;;18.80;50.60;;;;;;6272373;28;20076;-76
2021/05/23 15:37:34;;;;;;;0.57;0.50;;;18.50;52.20;;;;;;6272693;28;20191;-76
2021/05/23 15:40:35;;;;;;;0.98;0.40;;;18.20;54.70;;;;;;6264891;28;20125;-76
2021/05/23 15:43:37;;;;;;;1.35;0.45;;;18.20;54.10;;;;;;6272727;28;20131;-76
2021/05/23 15:46:38;;;;;;;2.38;0.40;;;18.40;53.70;;;;;;6272216;28;20140;-76
2021/05/23 15:49:42;;;;;;;0.75;0.40;;;18.50;53.50;;;;;;6272334;28;20049;-76
2021/05/23 15:52:45;;;;;;;5.68;2.85;;;18.80;52.30;;;;;;6272166;28;20049;-76
2021/05/23 15:55:46;;;;;;;7.38;6.68;;;18.90;52.10;;;;;;6272742;28;20144;-75